Time;durP1;ratioP1;P1;durP2;ratioP2;P2;SDS_P1;SDS_P2;PMS_P1;PMS_P2;Temp;Humidity;BMP_temperature;BMP_pressure;BME280_temperature;BME280_humidity;BME280_pressure;Samples;Min_cycle;Max_cycle;Signal;HPM_P1;HPM_P2
2022/09/20 00:01:14;;;;;;;7.13;1.80;;;10.00;99.90;;;;;;4895685;29;20665;-63
2022/09/20 00:03:42;;;;;;;8.07;2.00;;;10.00;99.90;;;;;;4895414;29;20386;-63
2022/09/20 00:06:13;;;;;;;4.80;1.55;;;10.10;99.90;;;;;;4894821;29;20083;-62
2022/09/20 00:08:39;;;;;;;6.43;1.73;;;10.10;99.90;;;;;;4895539;29;20100;-63
2022/09/20 00:11:09;;;;;;;7.25;1.50;;;10.10;99.90;;;;;;4898263;29;20573;-64
2022/09/20 00:13:36;;;;;;;8.23;1.88;;;10.00;99.90;;;;;;4899040;29;20040;-62
2022/09/20 00:16:10;;;;;;;6.47;1.67;;;10.10;99.90;;;;;;4898580;29;20033;-62
2022/09/20 00:18:37;;;;;;;7.70;1.77;;;10.20;99.90;;;;;;4899040;29;20109;-63
2022/09/20 00:21:04;;;;;;;9.80;2.25;;;10.20;99.90;;;;;;4896341;29;20123;-64
2022/09/20 00:23:31;;;;;;;6.72;1.48;;;10.30;99.90;;;;;;4880049;29;20056;-63
2022/09/20 00:25:59;;;;;;;8.93;1.90;;;10.30;99.90;;;;;;4893651;29;20723;-63
2022/09/20 00:28:26;;;;;;;7.03;1.73;;;10.30;99.90;;;;;;4898755;29;20071;-62
2022/09/20 00:30:53;;;;;;;8.15;1.67;;;10.40;99.90;;;;;;4898848;29;20128;-63
2022/09/20 00:33:19;;;;;;;7.18;1.63;;;10.50;99.90;;;;;;4881686;29;20053;-63
2022/09/20 00:35:45;;;;;;;9.88;2.03;;;10.50;99.90;;;;;;4897796;29;20048;-62
2022/09/20 00:38:15;;;;;;;5.78;2.25;;;10.60;99.90;;;;;;4897743;29;20084;-64
2022/09/20 00:40:44;;;;;;;8.63;1.90;;;10.70;99.90;;;;;;4885194;29;20044;-63
2022/09/20 00:43:17;;;;;;;9.13;2.03;;;10.70;99.90;;;;;;4898033;29;20111;-63
2022/09/20 00:45:47;;;;;;;8.68;1.90;;;10.80;99.90;;;;;;4892396;29;20053;-63
2022/09/20 00:48:29;;;;;;;9.77;1.80;;;10.80;99.90;;;;;;4890473;29;20045;-62
2022/09/20 00:51:03;;;;;;;9.70;2.10;;;10.90;99.90;;;;;;4885237;29;20048;-63
2022/09/20 00:53:36;;;;;;;8.27;2.00;;;10.90;99.90;;;;;;4897772;29;20052;-63
2022/09/20 00:56:06;;;;;;;10.75;2.17;;;11.00;99.90;;;;;;4897810;29;20052;-62
2022/09/20 00:58:36;;;;;;;6.95;2.00;;;11.00;99.90;;;;;;4897676;29;20055;-63
2022/09/20 01:01:04;;;;;;;8.88;1.75;;;11.00;99.90;;;;;;4898236;29;20040;-63
2022/09/20 01:03:32;;;;;;;6.95;1.90;;;11.10;99.90;;;;;;4897951;29;20052;-63
2022/09/20 01:06:02;;;;;;;9.63;1.88;;;11.10;99.90;;;;;;4897475;29;20502;-64
2022/09/20 01:08:29;;;;;;;8.30;1.70;;;11.10;99.90;;;;;;4897897;29;20036;-64
2022/09/20 01:10:54;;;;;;;8.43;1.85;;;11.10;99.90;;;;;;4897930;29;20029;-62
2022/09/20 01:13:20;;;;;;;9.32;2.33;;;11.20;99.90;;;;;;4898148;29;20055;-63
2022/09/20 01:15:48;;;;;;;8.68;1.88;;;11.20;99.90;;;;;;4883979;29;20051;-63
2022/09/20 01:18:15;;;;;;;7.93;1.77;;;11.20;99.90;;;;;;4880955;29;20040;-63
2022/09/20 01:20:43;;;;;;;20.25;2.60;;;11.20;99.90;;;;;;4897721;29;20087;-63
2022/09/20 01:23:34;;;;;;;7.03;1.90;;;11.30;99.90;;;;;;4884160;29;20168;-63
2022/09/20 01:26:17;;;;;;;7.35;1.80;;;11.30;99.90;;;;;;4896811;29;20047;-63
2022/09/20 01:28:46;;;;;;;7.30;1.65;;;11.30;99.90;;;;;;4880922;29;20491;-63
2022/09/20 01:31:27;;;;;;;8.13;1.40;;;11.30;99.90;;;;;;4897679;29;20045;-64
2022/09/20 01:34:02;;;;;;;6.93;1.65;;;11.40;99.90;;;;;;4884643;29;20458;-63
2022/09/20 01:36:41;;;;;;;6.63;1.80;;;11.40;99.90;;;;;;4897056;29;20057;-63
2022/09/20 01:39:18;;;;;;;7.90;1.70;;;11.40;99.90;;;;;;4885491;29;20447;-63
2022/09/20 01:41:58;;;;;;;6.93;1.80;;;11.40;99.90;;;;;;4897412;29;20052;-62
2022/09/20 01:44:36;;;;;;;4.88;1.35;;;11.40;99.90;;;;;;4897473;29;20055;-63
2022/09/20 01:47:29;;;;;;;8.10;1.88;;;11.40;99.90;;;;;;4880191;29;20705;-62
2022/09/20 01:50:15;;;;;;;5.88;1.75;;;11.40;99.90;;;;;;4897463;29;20052;-64
2022/09/20 01:52:53;;;;;;;7.75;2.20;;;11.40;99.90;;;;;;4889721;29;20148;-63
2022/09/20 01:55:21;;;;;;;6.35;1.70;;;11.40;99.90;;;;;;4896906;29;20056;-63
2022/09/20 01:58:08;;;;;;;5.57;1.58;;;11.50;99.90;;;;;;4896988;29;20362;-62
2022/09/20 02:00:40;;;;;;;7.13;1.60;;;11.40;99.90;;;;;;4880348;29;20466;-62
2022/09/20 02:03:27;;;;;;;6.25;1.50;;;11.50;99.90;;;;;;4896880;29;20107;-63
2022/09/20 02:06:22;;;;;;;9.90;1.70;;;11.50;99.90;;;;;;4879950;29;20134;-64
2022/09/20 02:09:14;;;;;;;10.02;2.20;;;11.50;99.90;;;;;;4897176;29;20048;-63
2022/09/20 02:12:21;;;;;;;4.80;1.25;;;11.50;99.90;;;;;;4888299;29;20076;-63
2022/09/20 02:15:12;;;;;;;8.90;1.70;;;11.50;99.90;;;;;;4885146;29;20053;-63
2022/09/20 02:17:55;;;;;;;9.80;1.63;;;11.50;99.90;;;;;;4876790;29;20048;-62
2022/09/20 02:21:04;;;;;;;10.30;1.83;;;11.50;99.90;;;;;;4896937;29;20044;-62
2022/09/20 02:23:44;;;;;;;6.03;1.70;;;11.50;99.90;;;;;;4886148;29;20119;-62
2022/09/20 02:26:43;;;;;;;5.57;1.65;;;11.50;99.90;;;;;;4878897;29;20052;-62
2022/09/20 02:29:43;;;;;;;7.13;1.58;;;11.50;99.90;;;;;;4886134;29;20355;-63
2022/09/20 02:32:27;;;;;;;8.90;1.73;;;11.50;99.90;;;;;;4880203;29;20044;-63
2022/09/20 02:35:19;;;;;;;;;;;11.50;99.90;;;;;;4897058;29;20041;-63
2022/09/20 02:37:56;;;;;;;5.70;1.55;;;11.50;99.90;;;;;;4855734;29;20408;-63
2022/09/20 02:40:39;;;;;;;8.75;2.10;;;11.40;99.90;;;;;;4896449;29;20120;-63
2022/09/20 02:43:32;;;;;;;6.93;1.98;;;11.40;99.90;;;;;;4879849;29;20489;-63
2022/09/20 02:46:16;;;;;;;7.03;1.60;;;11.50;99.90;;;;;;4884341;29;20036;-63
2022/09/20 02:49:07;;;;;;;7.78;1.88;;;11.40;99.90;;;;;;4896407;29;20140;-62
2022/09/20 02:51:40;;;;;;;9.05;1.80;;;11.40;99.90;;;;;;4867959;29;20053;-63
2022/09/20 02:54:14;;;;;;;10.93;1.80;;;11.40;99.90;;;;;;4894995;29;20119;-63
2022/09/20 02:57:08;;;;;;;10.20;1.90;;;11.40;99.90;;;;;;4879005;29;20076;-63
2022/09/20 03:00:01;;;;;;;7.80;2.10;;;11.40;99.90;;;;;;4881721;29;20048;-63
2022/09/20 03:02:32;;;;;;;6.47;1.67;;;11.40;99.90;;;;;;4896291;29;20052;-63
2022/09/20 03:05:24;;;;;;;8.85;2.08;;;11.30;99.90;;;;;;4896222;29;20050;-63
2022/09/20 03:08:14;;;;;;;6.05;2.00;;;11.40;99.90;;;;;;4895567;29;20048;-63
2022/09/20 03:10:56;;;;;;;8.82;2.20;;;11.30;99.90;;;;;;4895205;29;20763;-64
2022/09/20 03:13:49;;;;;;;6.55;1.85;;;11.30;99.90;;;;;;4895439;29;20032;-62
2022/09/20 03:16:33;;;;;;;7.03;1.70;;;11.30;99.90;;;;;;4894916;29;20119;-62
2022/09/20 03:19:59;;;;;;;6.63;1.65;;;11.20;99.90;;;;;;4879001;29;20719;-62
2022/09/20 03:22:38;;;;;;;8.02;1.45;;;11.20;99.90;;;;;;4875419;29;20056;-63
2022/09/20 03:25:22;;;;;;;8.57;1.85;;;11.20;99.90;;;;;;4883976;29;20040;-63
2022/09/20 03:27:54;;;;;;;5.22;1.60;;;11.20;99.90;;;;;;4891586;29;20045;-62
2022/09/20 03:30:40;;;;;;;7.95;1.60;;;11.20;99.90;;;;;;4878781;29;20470;-62
2022/09/20 03:33:43;;;;;;;9.07;2.05;;;11.20;99.90;;;;;;4895024;29;20049;-62
2022/09/20 03:36:30;;;;;;;7.25;1.80;;;11.10;99.90;;;;;;4886169;29;20060;-63
2022/09/20 03:39:20;;;;;;;7.82;1.75;;;11.20;99.90;;;;;;4895167;29;20045;-63
2022/09/20 03:42:01;;;;;;;7.68;1.50;;;11.20;99.90;;;;;;4895802;29;20180;-64
2022/09/20 03:45:01;;;;;;;8.38;1.55;;;11.20;99.90;;;;;;4896262;29;20067;-63
2022/09/20 03:47:51;;;;;;;9.30;1.50;;;11.20;99.90;;;;;;4882291;29;20083;-62
2022/09/20 03:50:30;;;;;;;6.18;1.42;;;11.20;99.90;;;;;;4899677;29;20123;-62
2022/09/20 03:53:14;;;;;;;10.35;1.50;;;11.30;99.90;;;;;;4899178;29;20060;-62
2022/09/20 03:56:13;;;;;;;6.45;1.40;;;11.30;99.90;;;;;;4881402;29;20049;-62
2022/09/20 03:59:00;;;;;;;4.88;1.40;;;11.40;99.90;;;;;;4897566;29;20044;-62
2022/09/20 04:02:19;;;;;;;9.48;1.70;;;11.40;99.90;;;;;;4879394;29;20120;-63
2022/09/20 04:04:48;;;;;;;5.97;1.45;;;11.40;99.90;;;;;;4895632;29;20549;-64
2022/09/20 04:07:36;;;;;;;5.45;1.30;;;11.40;99.90;;;;;;4878070;29;20059;-63
2022/09/20 04:10:12;;;;;;;4.63;1.20;;;11.40;99.90;;;;;;4897028;29;20096;-62
2022/09/20 04:12:54;;;;;;;4.13;1.40;;;11.40;99.90;;;;;;4896888;29;20360;-62
2022/09/20 04:15:41;;;;;;;5.30;1.30;;;11.50;99.90;;;;;;4865294;29;20390;-62
2022/09/20 04:18:36;;;;;;;2.97;1.20;;;11.50;99.90;;;;;;4881999;29;20133;-63
2022/09/20 04:21:22;;;;;;;6.47;1.23;;;11.50;99.90;;;;;;4889443;29;20044;-63
2022/09/20 04:24:04;;;;;;;4.15;1.10;;;11.50;99.90;;;;;;4898473;29;20047;-64
2022/09/20 04:26:33;;;;;;;4.00;1.23;;;11.50;99.90;;;;;;4893290;29;20036;-63
2022/09/20 04:29:07;;;;;;;6.38;1.25;;;11.50;99.90;;;;;;4898200;29;20064;-63
2022/09/20 04:31:42;;;;;;;3.65;0.98;;;11.50;99.90;;;;;;4897932;29;20041;-64
2022/09/20 04:34:18;;;;;;;3.92;1.10;;;11.50;99.90;;;;;;4898205;29;20045;-63
2022/09/20 04:36:58;;;;;;;3.20;1.08;;;11.50;99.90;;;;;;4897213;29;20052;-63
2022/09/20 04:39:45;;;;;;;3.83;1.02;;;11.50;99.90;;;;;;4898405;29;20119;-63
2022/09/20 04:42:58;;;;;;;3.20;1.20;;;11.50;99.90;;;;;;4898007;29;20040;-63
2022/09/20 04:45:59;;;;;;;4.93;1.17;;;11.50;99.90;;;;;;4876980;29;20052;-62
2022/09/20 04:49:02;;;;;;;4.70;1.08;;;11.40;99.90;;;;;;4897877;29;20040;-63
2022/09/20 04:51:50;;;;;;;3.78;1.17;;;11.40;99.90;;;;;;4884813;29;20112;-62
2022/09/20 04:54:34;;;;;;;5.95;1.10;;;11.30;99.90;;;;;;4884472;29;20128;-62
2022/09/20 04:57:28;;;;;;;3.15;1.10;;;11.30;99.90;;;;;;4877378;29;20056;-63
2022/09/20 05:00:17;;;;;;;4.03;0.95;;;11.30;99.90;;;;;;4895718;29;20166;-63
2022/09/20 05:03:21;;;;;;;3.83;1.17;;;11.30;99.90;;;;;;4896483;29;20041;-63
2022/09/20 05:06:04;;;;;;;4.50;1.10;;;11.20;99.90;;;;;;4894930;29;20051;-63
2022/09/20 05:08:39;;;;;;;7.00;1.08;;;11.20;99.90;;;;;;4889893;29;20064;-62
2022/09/20 05:11:45;;;;;;;8.68;1.40;;;11.20;99.90;;;;;;4883798;29;20184;-62
2022/09/20 05:14:28;;;;;;;6.57;1.23;;;11.30;99.90;;;;;;4892901;29;20312;-64
2022/09/20 05:17:09;;;;;;;4.28;1.77;;;11.30;99.90;;;;;;4896174;29;20052;-63
2022/09/20 05:19:47;;;;;;;6.53;1.40;;;11.30;99.90;;;;;;4896877;29;20055;-62
2022/09/20 05:22:18;;;;;;;5.10;1.48;;;11.30;99.90;;;;;;4878168;29;20092;-63
2022/09/20 05:25:18;;;;;;;7.65;1.67;;;11.30;99.90;;;;;;4885023;29;20426;-62
2022/09/20 05:27:55;;;;;;;4.40;1.35;;;11.30;99.90;;;;;;4898316;29;20037;-64
2022/09/20 05:30:45;;;;;;;4.35;1.48;;;11.30;99.90;;;;;;4893529;29;20053;-62
2022/09/20 05:33:40;;;;;;;3.40;1.20;;;11.40;99.90;;;;;;4870303;29;20045;-63
2022/09/20 05:36:35;;;;;;;5.38;1.05;;;11.40;99.90;;;;;;4886562;29;20537;-63
2022/09/20 05:39:30;;;;;;;7.63;1.73;;;11.30;99.90;;;;;;4868932;29;20115;-64
2022/09/20 05:42:06;;;;;;;;;;;11.30;99.90;;;;;;4888539;29;20459;-64
2022/09/20 05:45:08;;;;;;;4.22;1.23;;;11.30;99.90;;;;;;4888130;29;20261;-64
2022/09/20 05:47:42;;;;;;;7.65;1.58;;;11.30;99.90;;;;;;4889497;29;20462;-64
2022/09/20 05:50:45;;;;;;;5.60;1.10;;;11.30;99.90;;;;;;4885588;29;20455;-64
2022/09/20 05:53:48;;;;;;;4.47;1.25;;;11.30;99.90;;;;;;4885482;29;20754;-64
2022/09/20 05:56:21;;;;;;;4.65;1.20;;;11.40;99.90;;;;;;4884912;29;20037;-64
2022/09/20 05:58:54;;;;;;;4.53;1.30;;;11.40;99.90;;;;;;4886923;29;20427;-63
2022/09/20 06:01:25;;;;;;;6.10;1.50;;;11.40;99.90;;;;;;4873349;29;20041;-64
2022/09/20 06:04:06;;;;;;;4.05;1.30;;;11.40;99.90;;;;;;4886578;29;20048;-64
2022/09/20 06:07:04;;;;;;;7.00;1.60;;;11.40;99.90;;;;;;4873274;29;20202;-65
2022/09/20 06:09:52;;;;;;;4.00;1.50;;;11.40;99.90;;;;;;4890617;29;20040;-64
2022/09/20 06:12:46;;;;;;;6.13;1.65;;;11.40;99.90;;;;;;4884853;29;20370;-64
2022/09/20 06:15:26;;;;;;;6.03;1.50;;;11.40;99.90;;;;;;4887213;29;20037;-64
2022/09/20 06:18:15;;;;;;;4.70;1.52;;;11.60;99.90;;;;;;4888928;29;20068;-64
2022/09/20 06:21:11;;;;;;;5.45;1.40;;;11.60;99.90;;;;;;4885483;29;20080;-65
2022/09/20 06:23:37;;;;;;;5.57;1.70;;;11.70;99.90;;;;;;4884934;29;20072;-65
2022/09/20 06:26:26;;;;;;;5.18;1.80;;;11.70;99.90;;;;;;4889198;29;20079;-62
2022/09/20 06:28:58;;;;;;;7.28;1.67;;;11.80;99.90;;;;;;4885311;29;20049;-62
2022/09/20 06:31:24;;;;;;;8.07;2.38;;;11.70;99.90;;;;;;4881551;29;20037;-62
2022/09/20 06:33:57;;;;;;;7.25;2.30;;;11.70;99.90;;;;;;4897332;29;20111;-62
2022/09/20 06:42:16;;;;;;;8.02;2.00;;;11.70;99.90;;;;;;4896445;29;20056;-64
2022/09/20 06:44:42;;;;;;;7.20;2.38;;;11.70;99.90;;;;;;4896591;29;20112;-64
2022/09/20 06:47:12;;;;;;;7.65;1.70;;;11.80;99.90;;;;;;4896157;29;20040;-65
2022/09/20 06:49:41;;;;;;;6.72;1.50;;;11.80;99.90;;;;;;4880669;29;20140;-65
2022/09/20 06:52:11;;;;;;;7.47;1.42;;;11.90;99.90;;;;;;4880262;29;20107;-63
2022/09/20 06:54:37;;;;;;;4.55;1.40;;;11.90;99.90;;;;;;4896830;29;20064;-64
2022/09/20 06:57:04;;;;;;;5.10;1.45;;;11.90;99.90;;;;;;4895882;29;20411;-65
2022/09/20 06:59:30;;;;;;;3.63;1.48;;;12.00;99.90;;;;;;4880079;29;20131;-63
2022/09/20 07:01:56;;;;;;;7.00;1.48;;;12.00;99.90;;;;;;4896839;29;20036;-63
2022/09/20 07:04:25;;;;;;;6.75;1.50;;;12.10;99.90;;;;;;4896782;29;20296;-64
2022/09/20 07:06:53;;;;;;;5.57;1.40;;;12.10;99.90;;;;;;4895763;29;20040;-64
2022/09/20 07:09:18;;;;;;;6.82;1.50;;;12.20;99.90;;;;;;4896616;29;20127;-64
2022/09/20 07:11:45;;;;;;;8.48;2.00;;;12.40;99.90;;;;;;4896413;29;20151;-63
2022/09/20 07:14:10;;;;;;;11.20;2.40;;;12.40;99.90;;;;;;4896666;29;20096;-64
2022/09/20 07:16:37;;;;;;;10.07;1.63;;;12.60;99.90;;;;;;4896451;29;20071;-63
2022/09/20 07:19:05;;;;;;;5.65;1.45;;;12.70;99.90;;;;;;4895992;29;20120;-64
2022/09/20 07:21:30;;;;;;;4.90;1.38;;;12.80;99.90;;;;;;4896762;29;20088;-64
2022/09/20 07:23:56;;;;;;;5.68;1.60;;;12.90;99.90;;;;;;4896180;29;20459;-64
2022/09/20 07:26:28;;;;;;;6.13;1.77;;;13.00;99.90;;;;;;4878460;29;20044;-64
2022/09/20 07:28:54;;;;;;;4.38;1.10;;;13.10;99.90;;;;;;4896251;29;20040;-63
2022/09/20 07:31:23;;;;;;;4.72;1.65;;;13.30;99.90;;;;;;4896791;29;20059;-63
2022/09/20 07:33:49;;;;;;;5.70;1.25;;;13.30;99.90;;;;;;4896276;29;20458;-62
2022/09/20 07:36:15;;;;;;;6.38;1.50;;;13.50;99.90;;;;;;4895908;29;20056;-64
2022/09/20 07:38:42;;;;;;;7.88;1.33;;;13.60;99.90;;;;;;4896163;29;20125;-63
2022/09/20 07:41:09;;;;;;;3.83;1.30;;;13.60;99.90;;;;;;4896560;29;20044;-64
2022/09/20 07:43:35;;;;;;;4.05;1.20;;;13.60;99.90;;;;;;4895150;29;20049;-64
2022/09/20 07:46:01;;;;;;;7.70;1.67;;;13.70;99.90;;;;;;4895495;29;20048;-63
2022/09/20 07:48:35;;;;;;;6.82;1.38;;;13.70;99.90;;;;;;4879825;29;20048;-64
2022/09/20 07:51:04;;;;;;;2.72;1.17;;;13.70;99.90;;;;;;4879803;29;20045;-64
2022/09/20 07:53:30;;;;;;;6.80;1.80;;;13.70;99.90;;;;;;4896362;29;20041;-63
2022/09/20 07:55:58;;;;;;;5.28;1.70;;;13.60;99.90;;;;;;4895842;29;20052;-64
2022/09/20 07:58:24;;;;;;;7.18;1.30;;;13.80;99.90;;;;;;4896039;29;20120;-64
2022/09/20 08:00:59;;;;;;;4.47;1.00;;;13.90;99.90;;;;;;4879610;29;20124;-64
2022/09/20 08:03:25;;;;;;;4.43;1.23;;;14.00;99.90;;;;;;4896543;29;20052;-63
2022/09/20 08:05:57;;;;;;;8.10;1.65;;;14.10;99.90;;;;;;4892736;29;20045;-63
2022/09/20 08:08:23;;;;;;;5.50;1.27;;;14.20;99.90;;;;;;4887038;29;20120;-63
2022/09/20 08:10:49;;;;;;;7.25;1.58;;;14.30;99.90;;;;;;4895978;29;20040;-63
2022/09/20 08:13:15;;;;;;;5.95;1.33;;;14.50;99.90;;;;;;4895823;29;20037;-63
2022/09/20 08:15:41;;;;;;;3.97;1.10;;;14.60;99.90;;;;;;4878488;29;20053;-63
2022/09/20 08:18:08;;;;;;;5.43;1.13;;;14.70;99.90;;;;;;4896344;29;20028;-64
2022/09/20 08:20:40;;;;;;;6.85;1.58;;;14.80;99.90;;;;;;4896304;29;20033;-63
2022/09/20 08:23:07;;;;;;;3.92;1.20;;;14.80;99.90;;;;;;4895735;29;20485;-63
2022/09/20 08:25:33;;;;;;;7.68;1.52;;;14.60;99.90;;;;;;4863343;29;20076;-63
2022/09/20 08:27:59;;;;;;;7.00;1.65;;;14.60;99.90;;;;;;4894814;29;20076;-63
2022/09/20 08:30:24;;;;;;;4.38;1.40;;;14.70;99.90;;;;;;4896098;29;20394;-64
2022/09/20 08:32:54;;;;;;;8.23;1.50;;;14.70;99.90;;;;;;4899708;29;20041;-62
2022/09/20 08:35:21;;;;;;;6.00;1.38;;;14.70;99.90;;;;;;4895322;29;20041;-63
2022/09/20 08:37:47;;;;;;;6.82;1.20;;;14.70;99.90;;;;;;4882141;29;20108;-63
2022/09/20 08:40:14;;;;;;;6.68;1.58;;;14.80;99.90;;;;;;4898986;29;20127;-64
2022/09/20 08:42:43;;;;;;;8.07;1.70;;;14.90;99.90;;;;;;4898946;29;20059;-63
2022/09/20 08:45:20;;;;;;;7.10;1.50;;;15.00;99.90;;;;;;4868403;29;20181;-62
2022/09/20 08:47:55;;;;;;;7.53;1.67;;;15.00;99.90;;;;;;4898969;29;20044;-63
2022/09/20 08:50:21;;;;;;;5.60;1.30;;;15.00;99.90;;;;;;4899452;29;20063;-63
2022/09/20 08:52:50;;;;;;;6.40;1.48;;;15.00;99.90;;;;;;4899301;29;20057;-63
2022/09/20 08:55:31;;;;;;;4.18;1.20;;;15.10;99.90;;;;;;4898734;29;20051;-64
2022/09/20 08:57:58;;;;;;;8.93;1.67;;;15.30;99.90;;;;;;4898250;29;20156;-62
2022/09/20 09:00:33;;;;;;;5.00;1.10;;;15.30;99.90;;;;;;4898334;29;20471;-70
2022/09/20 09:03:19;;;;;;;5.30;1.30;;;15.50;99.90;;;;;;4899278;29;20127;-70
2022/09/20 09:05:47;;;;;;;10.63;1.50;;;15.50;99.90;;;;;;4896058;29;20060;-63
2022/09/20 09:08:25;;;;;;;7.65;1.48;;;15.40;99.90;;;;;;4888380;29;20056;-63
2022/09/20 09:11:03;;;;;;;2.95;1.23;;;15.50;99.90;;;;;;4882038;29;20071;-64
2022/09/20 09:13:55;;;;;;;6.82;1.10;;;15.50;99.90;;;;;;4871724;29;20356;-63
2022/09/20 09:16:23;;;;;;;6.18;1.30;;;15.50;99.90;;;;;;4897606;29;20036;-64
2022/09/20 09:18:50;;;;;;;6.90;1.55;;;15.50;99.90;;;;;;4898927;29;20033;-63
2022/09/20 09:21:25;;;;;;;6.90;1.40;;;15.50;99.90;;;;;;4881542;29;20048;-63
2022/09/20 09:23:56;;;;;;;8.07;1.65;;;15.40;99.90;;;;;;4898131;29;20063;-63
2022/09/20 09:26:23;;;;;;;6.70;1.63;;;15.40;99.90;;;;;;4898170;29;20044;-63
2022/09/20 09:29:08;;;;;;;5.00;1.42;;;15.40;99.90;;;;;;4897836;29;20048;-63
2022/09/20 09:31:33;;;;;;;7.82;1.85;;;15.50;99.90;;;;;;4898566;29;20075;-63
2022/09/20 09:33:59;;;;;;;7.22;1.50;;;15.70;99.90;;;;;;4898533;29;20183;-63
2022/09/20 09:36:26;;;;;;;6.80;1.52;;;15.80;99.90;;;;;;4897540;29;20067;-64
2022/09/20 09:39:22;;;;;;;5.97;1.17;;;15.90;99.90;;;;;;4897958;29;20040;-63
2022/09/20 09:41:48;;;;;;;6.22;1.15;;;15.90;99.90;;;;;;4897549;29;20374;-63
2022/09/20 09:44:28;;;;;;;5.43;1.20;;;15.90;99.90;;;;;;4881181;29;20076;-64
2022/09/20 09:46:55;;;;;;;6.30;1.60;;;15.90;99.90;;;;;;4897659;29;20048;-63
2022/09/20 09:49:24;;;;;;;6.72;1.42;;;16.00;99.90;;;;;;4898088;29;20040;-63
2022/09/20 09:52:13;;;;;;;7.30;1.58;;;16.10;99.90;;;;;;4898359;29;20116;-63
2022/09/20 09:54:45;;;;;;;6.45;1.25;;;16.20;99.90;;;;;;4898260;29;20139;-64
2022/09/20 09:57:20;;;;;;;5.85;1.80;;;16.30;99.90;;;;;;4880605;29;20057;-63
2022/09/20 10:00:02;;;;;;;4.35;1.40;;;16.40;99.90;;;;;;4897397;29;20473;-64
2022/09/20 10:02:47;;;;;;;8.50;1.40;;;16.60;99.90;;;;;;4885107;29;20048;-64
2022/09/20 10:05:12;;;;;;;4.53;1.10;;;16.50;99.90;;;;;;4897308;29;20044;-64
2022/09/20 10:08:05;;;;;;;9.77;3.00;;;16.50;99.90;;;;;;4896929;29;20054;-64
2022/09/20 10:10:42;;;;;;;6.07;1.60;;;16.50;99.90;;;;;;4897983;29;20111;-63
2022/09/20 10:13:44;;;;;;;7.15;1.38;;;16.50;99.90;;;;;;4885355;29;20036;-64
2022/09/20 10:16:36;;;;;;;5.75;1.88;;;16.50;99.90;;;;;;4885559;29;20144;-63
2022/09/20 10:19:27;;;;;;;10.52;3.30;;;16.40;99.90;;;;;;4897623;29;20469;-64
2022/09/20 10:21:58;;;;;;;7.70;1.70;;;16.30;99.90;;;;;;4897719;29;20105;-64
2022/09/20 10:24:45;;;;;;;8.38;1.50;;;16.20;99.90;;;;;;4897295;29;20056;-64
2022/09/20 10:27:37;;;;;;;7.10;1.20;;;16.10;99.90;;;;;;4896655;29;20135;-64
2022/09/20 10:30:20;;;;;;;3.58;1.23;;;16.00;99.90;;;;;;4896652;29;20497;-64
2022/09/20 10:33:19;;;;;;;5.90;1.50;;;15.90;99.90;;;;;;4897067;29;20040;-64
2022/09/20 10:35:57;;;;;;;8.65;1.90;;;15.90;99.90;;;;;;4884140;29;20507;-63
2022/09/20 10:38:30;;;;;;;7.70;2.22;;;15.80;99.90;;;;;;4896652;29;20136;-63
2022/09/20 10:44:19;;;;;;;10.05;2.88;;;15.60;99.90;;;;;;4884587;29;20059;-64
2022/09/20 10:47:13;;;;;;;9.23;3.10;;;15.50;99.90;;;;;;4895590;29;20097;-64
2022/09/20 10:50:18;;;;;;;7.10;2.08;;;15.60;99.90;;;;;;4887423;29;20104;-63
2022/09/20 10:53:11;;;;;;;7.50;2.10;;;15.60;99.90;;;;;;4884530;29;20098;-64
2022/09/20 10:55:46;;;;;;;5.45;1.30;;;15.70;99.90;;;;;;4895057;29;20375;-63
2022/09/20 10:58:47;;;;;;;7.63;1.50;;;15.80;99.90;;;;;;4870995;29;20060;-63
2022/09/20 11:01:28;;;;;;;8.50;2.45;;;16.00;99.90;;;;;;4884624;29;20051;-63
2022/09/20 11:04:05;;;;;;;7.63;4.13;;;16.10;99.90;;;;;;4897006;29;20071;-63
2022/09/20 11:06:49;;;;;;;5.53;1.75;;;16.20;99.90;;;;;;4879980;29;20048;-63
2022/09/20 11:09:23;;;;;;;6.13;1.27;;;16.40;99.90;;;;;;4896720;29;20394;-63
2022/09/20 11:11:51;;;;;;;;;;;16.50;99.90;;;;;;4897111;29;20098;-64
2022/09/20 11:14:32;;;;;;;7.78;1.40;;;16.60;99.90;;;;;;4896430;29;20013;-63
2022/09/20 11:17:04;;;;;;;5.28;1.40;;;16.50;99.90;;;;;;4896169;29;20044;-63
2022/09/20 11:19:33;;;;;;;6.90;1.40;;;16.80;99.90;;;;;;4879813;29;20060;-63
2022/09/20 11:22:24;;;;;;;8.57;1.63;;;16.90;99.90;;;;;;4887122;29;20070;-63
2022/09/20 11:25:11;;;;;;;4.53;1.30;;;17.10;99.90;;;;;;4896211;29;20374;-63
2022/09/20 11:27:42;;;;;;;4.00;0.93;;;17.20;99.90;;;;;;4895963;29;20063;-63
2022/09/20 11:30:18;;;;;;;5.53;1.02;;;17.40;99.90;;;;;;4879744;29;20115;-64
2022/09/20 11:32:51;;;;;;;3.95;1.10;;;17.40;99.90;;;;;;4896426;29;20374;-63
2022/09/20 11:35:26;;;;;;;7.63;1.40;;;17.40;99.90;;;;;;4895337;29;20044;-63
2022/09/20 11:38:02;;;;;;;5.40;1.30;;;17.30;99.90;;;;;;4895386;29;20501;-63
2022/09/20 11:40:32;;;;;;;2.63;0.73;;;17.40;99.90;;;;;;4895938;29;20043;-63
2022/09/20 11:43:00;;;;;;;4.50;1.10;;;17.60;99.90;;;;;;4896456;29;20048;-64
2022/09/20 11:45:28;;;;;;;4.60;1.02;;;17.70;99.90;;;;;;4896169;29;20442;-64
2022/09/20 11:48:05;;;;;;;4.97;1.10;;;17.70;99.90;;;;;;4895986;29;20041;-63
2022/09/20 11:50:44;;;;;;;3.95;1.10;;;17.60;99.90;;;;;;4895673;29;20044;-63
2022/09/20 11:53:18;;;;;;;6.35;1.40;;;17.40;99.90;;;;;;4896110;29;20750;-63
2022/09/20 11:55:47;;;;;;;10.70;1.52;;;17.20;99.90;;;;;;4895766;29;20368;-64
2022/09/20 11:58:15;;;;;;;4.93;1.52;;;16.80;99.90;;;;;;4896245;29;20482;-63
2022/09/20 12:00:45;;;;;;;13.10;4.13;;;16.40;99.90;;;;;;4896278;29;20040;-63
2022/09/20 12:03:31;;;;;;;6.60;1.90;;;15.90;99.90;;;;;;4879904;29;20242;-63
2022/09/20 12:06:02;;;;;;;9.13;1.35;;;15.60;99.90;;;;;;4896654;29;20044;-64
2022/09/20 12:08:31;;;;;;;5.82;1.38;;;15.40;99.90;;;;;;4899527;29;20040;-63
2022/09/20 12:11:09;;;;;;;7.68;1.48;;;15.30;99.90;;;;;;4899484;29;20068;-63
2022/09/20 12:13:42;;;;;;;5.38;1.40;;;15.30;99.90;;;;;;4883094;29;20055;-63
2022/09/20 12:16:14;;;;;;;5.03;1.42;;;15.30;99.90;;;;;;4878624;29;20095;-64
2022/09/20 12:19:06;;;;;;;7.85;2.05;;;15.30;99.90;;;;;;4891010;29;20141;-63
2022/09/20 12:21:57;;;;;;;8.40;2.20;;;15.50;99.90;;;;;;4883011;29;20121;-63
2022/09/20 12:24:38;;;;;;;7.82;1.90;;;15.50;99.90;;;;;;4899700;29;20055;-64
2022/09/20 12:27:21;;;;;;;6.05;1.63;;;15.60;99.90;;;;;;4882475;29;20036;-63
2022/09/20 12:30:10;;;;;;;4.22;1.20;;;15.70;99.90;;;;;;4899635;29;20044;-63
2022/09/20 12:32:42;;;;;;;3.53;1.20;;;15.70;99.90;;;;;;4882092;29;20063;-63
2022/09/20 12:35:37;;;;;;;4.65;2.00;;;15.70;99.90;;;;;;4899009;29;20337;-63
2022/09/20 12:38:26;;;;;;;8.27;3.92;;;15.80;99.90;;;;;;4898387;29;20219;-63
2022/09/20 12:41:08;;;;;;;5.55;1.35;;;16.00;99.90;;;;;;4887851;29;20108;-63
2022/09/20 12:43:45;;;;;;;4.57;1.10;;;16.10;99.90;;;;;;4899598;29;20044;-63
2022/09/20 12:46:28;;;;;;;2.88;1.00;;;16.30;99.90;;;;;;4898764;29;20072;-64
2022/09/20 12:52:49;;;;;;;4.80;1.10;;;16.70;99.90;;;;;;4878666;29;20040;-64
2022/09/20 12:55:26;;;;;;;5.72;1.80;;;16.90;99.90;;;;;;4898740;29;20115;-64
2022/09/20 12:58:02;;;;;;;4.47;1.20;;;17.10;99.90;;;;;;4874145;29;20157;-64
2022/09/20 13:00:59;;;;;;;4.40;0.90;;;17.00;99.90;;;;;;4894429;29;20116;-64
2022/09/20 13:03:37;;;;;;;4.07;1.00;;;16.90;99.90;;;;;;4899150;29;20128;-64
2022/09/20 13:06:05;;;;;;;3.42;1.20;;;17.00;99.90;;;;;;4881257;29;20415;-65
2022/09/20 13:08:48;;;;;;;4.75;1.30;;;17.00;99.90;;;;;;4898693;29;20052;-65
2022/09/20 13:11:18;;;;;;;5.57;1.30;;;16.90;99.90;;;;;;4897539;29;20048;-64
2022/09/20 13:13:57;;;;;;;5.18;1.27;;;17.00;99.90;;;;;;4882133;29;20545;-64
2022/09/20 13:16:34;;;;;;;9.15;1.70;;;17.20;99.90;;;;;;4897981;29;20052;-64
2022/09/20 13:19:05;;;;;;;5.50;1.30;;;17.50;99.90;;;;;;4881484;29;20108;-64
2022/09/20 13:21:38;;;;;;;6.75;1.63;;;17.50;99.90;;;;;;4869326;29;20127;-64
2022/09/20 13:24:05;;;;;;;6.38;1.40;;;17.40;99.90;;;;;;4898655;29;20382;-64
2022/09/20 13:26:39;;;;;;;5.60;1.25;;;17.20;99.90;;;;;;4897780;29;20044;-64
2022/09/20 13:29:09;;;;;;;5.07;1.10;;;16.80;99.90;;;;;;4898723;29;20048;-63
2022/09/20 13:31:35;;;;;;;3.65;1.08;;;16.60;99.90;;;;;;4898593;29;20131;-64
2022/09/20 13:34:21;;;;;;;5.97;1.08;;;16.40;99.90;;;;;;4898461;29;20052;-64
2022/09/20 13:36:51;;;;;;;6.25;1.25;;;16.30;99.90;;;;;;4872333;29;20065;-64
2022/09/20 13:39:35;;;;;;;9.27;1.42;;;16.20;99.90;;;;;;4879722;29;20383;-63
2022/09/20 13:42:05;;;;;;;;;;;16.20;99.90;;;;;;4879616;29;20136;-64
2022/09/20 13:44:33;;;;;;;6.05;1.92;;;16.00;99.90;;;;;;4879711;29;19923;-64
2022/09/20 13:46:58;;;;;;;7.95;1.50;;;16.00;99.90;;;;;;4877345;29;20045;-64
2022/09/20 13:49:24;;;;;;;5.18;1.27;;;16.00;99.90;;;;;;4868303;29;20097;-64
2022/09/20 13:51:50;;;;;;;4.45;1.00;;;16.00;99.90;;;;;;4879653;29;20051;-63
2022/09/20 13:54:30;;;;;;;6.13;1.23;;;16.20;99.90;;;;;;4879223;29;20045;-64
2022/09/20 13:56:59;;;;;;;7.60;1.25;;;16.20;99.90;;;;;;4877735;29;20091;-63